^^
Saratoga-Weather Station Historical Data
Daily Summary for September 29, 2021 Units:  Both    English   Metric
Daily Weekly Monthly Yearly Custom
  High: Low: Average:
Temperature: 56.3 °F /  13.5 °C 50.5 °F /  10.3 °C 53.8 °F /  12.1 °C
Dew Point: 48.2 °F /  9 °C 45 °F /  7.2 °C 46.9 °F /  8.3 °C
Humidity: 81% 74% 77%
Wind Speed: 2mph /  3.2km/h - 0.2mph /  0.3km/h
Wind Gust: 4mph /  6.4km/h - -
Wind- - SSE
Pressure: 30.2 in /  1021.3 hPa 30.2 in /  1021.0 hPa -
Precipitation: 0 in /  0.0 mm    
Historical Graphs
 
 
Tabular Data for September 29, 2021
Time Temperature Dew Point Pressure Wind Wind Speed Wind Gust Humidity Rainfall Rate (Hourly) solar
00:02 56.3 °F /  13.5 °C 48.2 °F /  9 °C 30.2in /  1021.3hPa Calm     74% 0in /  0.0mm 0 W/m2
00:07 56.1 °F /  13.4 °C 48 °F /  8.9 °C 30.2in /  1021.3hPa Calm   1mph /  1.6km/h 74% 0in /  0.0mm 0 W/m2
00:12 55.9 °F /  13.3 °C 48.2 °F /  9 °C 30.2in /  1021.3hPa Calm     75% 0in /  0.0mm 0 W/m2
00:17 55.9 °F /  13.3 °C 48.2 °F /  9 °C 30.2in /  1021.3hPa Calm     75% 0in /  0.0mm 0 W/m2
00:22 55.8 °F /  13.2 °C 48 °F /  8.9 °C 30.2in /  1021.3hPa Calm     75% 0in /  0.0mm 0 W/m2
00:27 55.6 °F /  13.1 °C 47.8 °F /  8.8 °C 30.2in /  1021.3hPa Calm     75% 0in /  0.0mm 0 W/m2
00:32 55.6 °F /  13.1 °C 48.2 °F /  9 °C 30.2in /  1021.3hPa Calm     76% 0in /  0.0mm 0 W/m2
00:37 55.4 °F /  13 °C 48 °F /  8.9 °C 30.2in /  1021.3hPa Calm     76% 0in /  0.0mm 0 W/m2
00:42 55.2 °F /  12.9 °C 47.8 °F /  8.8 °C 30.2in /  1021.3hPa Calm     76% 0in /  0.0mm 0 W/m2
00:47 55.2 °F /  12.9 °C 47.8 °F /  8.8 °C 30.2in /  1021.3hPa Calm     76% 0in /  0.0mm 0 W/m2
00:52 55 °F /  12.8 °C 48 °F /  8.9 °C 30.2in /  1021.3hPa Calm     77% 0in /  0.0mm 0 W/m2
00:57 55 °F /  12.8 °C 47.7 °F /  8.7 °C 30.2in /  1021.3hPa Calm     76% 0in /  0.0mm 0 W/m2
01:02 54.9 °F /  12.7 °C 47.8 °F /  8.8 °C 30.2in /  1021.3hPa Calm     77% 0in /  0.0mm 0 W/m2
01:07 54.9 °F /  12.7 °C 47.8 °F /  8.8 °C 30.2in /  1021.3hPa Calm     77% 0in /  0.0mm 0 W/m2
01:12 54.9 °F /  12.7 °C 47.8 °F /  8.8 °C 30.2in /  1021.3hPa Calm     77% 0in /  0.0mm 0 W/m2
01:17 54.9 °F /  12.7 °C 47.8 °F /  8.8 °C 30.2in /  1021.3hPa Calm     77% 0in /  0.0mm 0 W/m2
01:22 54.7 °F /  12.6 °C 47.7 °F /  8.7 °C 30.2in /  1021.3hPa Calm     77% 0in /  0.0mm 0 W/m2
01:27 54.7 °F /  12.6 °C 47.7 °F /  8.7 °C 30.2in /  1021.3hPa Calm   1mph /  1.6km/h 77% 0in /  0.0mm 0 W/m2
01:32 54.5 °F /  12.5 °C 47.5 °F /  8.6 °C 30.2in /  1021.3hPa Calm     77% 0in /  0.0mm 0 W/m2
01:37 54.5 °F /  12.5 °C 47.5 °F /  8.6 °C 30.2in /  1021.3hPa Calm     77% 0in /  0.0mm 0 W/m2
01:42 54.3 °F /  12.4 °C 47.3 °F /  8.5 °C 30.2in /  1021.3hPa Calm     77% 0in /  0.0mm 0 W/m2
01:47 54.1 °F /  12.3 °C 47.1 °F /  8.4 °C 30.2in /  1021.3hPa Calm     77% 0in /  0.0mm 0 W/m2
01:52 54.1 °F /  12.3 °C 47.1 °F /  8.4 °C 30.2in /  1021.3hPa Calm     77% 0in /  0.0mm 0 W/m2
01:57 54 °F /  12.2 °C 46.9 °F /  8.3 °C 30.2in /  1021.3hPa Calm     77% 0in /  0.0mm 0 W/m2
02:02 54 °F /  12.2 °C 46.9 °F /  8.3 °C 30.2in /  1021.3hPa Calm     77% 0in /  0.0mm 0 W/m2
02:07 53.8 °F /  12.1 °C 47.1 °F /  8.4 °C 30.2in /  1021.3hPa Calm     78% 0in /  0.0mm 0 W/m2
02:12 53.4 °F /  11.9 °C 46.8 °F /  8.2 °C 30.2in /  1021.3hPa Calm     78% 0in /  0.0mm 0 W/m2
02:17 53.4 °F /  11.9 °C 47.1 °F /  8.4 °C 30.2in /  1021.3hPa Calm   1mph /  1.6km/h 79% 0in /  0.0mm 0 W/m2
02:22 53.2 °F /  11.8 °C 46.6 °F /  8.1 °C 30.2in /  1021.3hPa ESE 0.9mph /  1.4km/h 2mph /  3.2km/h 78% 0in /  0.0mm 0 W/m2
02:27 53.2 °F /  11.8 °C 46.6 °F /  8.1 °C 30.2in /  1021.3hPa Calm   1mph /  1.6km/h 78% 0in /  0.0mm 0 W/m2
02:32 53.2 °F /  11.8 °C 46.6 °F /  8.1 °C 30.2in /  1021.3hPa Calm   1mph /  1.6km/h 78% 0in /  0.0mm 0 W/m2
02:37 53.1 °F /  11.7 °C 46.4 °F /  8 °C 30.2in /  1021.3hPa ESE 0.9mph /  1.4km/h 2mph /  3.2km/h 78% 0in /  0.0mm 0 W/m2
02:42 52.9 °F /  11.6 °C 46.2 °F /  7.9 °C 30.2in /  1021.0hPa Calm   1mph /  1.6km/h 78% 0in /  0.0mm 0 W/m2
02:47 52.7 °F /  11.5 °C 46.4 °F /  8 °C 30.2in /  1021.3hPa South 0.9mph /  1.4km/h 4mph /  6.4km/h 79% 0in /  0.0mm 0 W/m2
02:52 52.5 °F /  11.4 °C 45.9 °F /  7.7 °C 30.2in /  1021.0hPa South 0.9mph /  1.4km/h 2mph /  3.2km/h 78% 0in /  0.0mm 0 W/m2
02:57 52.7 °F /  11.5 °C 45.7 °F /  7.6 °C 30.2in /  1021.0hPa SW 2mph /  3.2km/h 4mph /  6.4km/h 77% 0in /  0.0mm 0 W/m2
03:02 52.9 °F /  11.6 °C 45.5 °F /  7.5 °C 30.2in /  1021.0hPa Calm   1mph /  1.6km/h 76% 0in /  0.0mm 0 W/m2
03:07 52.9 °F /  11.6 °C 45.9 °F /  7.7 °C 30.2in /  1021.0hPa Calm     77% 0in /  0.0mm 0 W/m2
03:12 52.5 °F /  11.4 °C 45.5 °F /  7.5 °C 30.2in /  1021.0hPa Calm     77% 0in /  0.0mm 0 W/m2
03:17 52.3 °F /  11.3 °C 45.7 °F /  7.6 °C 30.2in /  1021.0hPa SSE 0.9mph /  1.4km/h 1mph /  1.6km/h 78% 0in /  0.0mm 0 W/m2
03:22 52 °F /  11.1 °C 45.7 °F /  7.6 °C 30.2in /  1021.0hPa Calm     79% 0in /  0.0mm 0 W/m2
03:27 51.6 °F /  10.9 °C 45.3 °F /  7.4 °C 30.2in /  1021.0hPa Calm   2mph /  3.2km/h 79% 0in /  0.0mm 0 W/m2
03:32 51.3 °F /  10.7 °C 45.3 °F /  7.4 °C 30.2in /  1021.0hPa Calm   2mph /  3.2km/h 80% 0in /  0.0mm 0 W/m2
03:37 51.1 °F /  10.6 °C 45.1 °F /  7.3 °C 30.2in /  1021.3hPa SSE 0.9mph /  1.4km/h 2mph /  3.2km/h 80% 0in /  0.0mm 0 W/m2
03:42 50.7 °F /  10.4 °C 45.1 °F /  7.3 °C 30.2in /  1021.3hPa Calm   2mph /  3.2km/h 81% 0in /  0.0mm 0 W/m2
03:47 50.7 °F /  10.4 °C 45.1 °F /  7.3 °C 30.2in /  1021.3hPa East 0.9mph /  1.4km/h 3mph /  4.8km/h 81% 0in /  0.0mm 0 W/m2
03:52 50.5 °F /  10.3 °C 45 °F /  7.2 °C 30.2in /  1021.3hPa Calm   1mph /  1.6km/h 81% 0in /  0.0mm 0 W/m2
Juneau County Weather
Compliments of Weather Underground - 4 mb